Jennifer — WDF6480 — position and weather

sailwx.info

Track history (hours):
 
Tides and Currents Weather Stations Pressure Air Temp Water Temp Dewpoint Dewpoint Depression Visibility Wind Speed Wind Dir Waves Ship Positions

Jennifer

Owner: John W. Stone Oil Distributor, L.L.C., Gretna, LA. More information available from US FCC via Universal Licensing System and Coast Guard Vessel Documentation Center.

Last reported at 2014-Dec-21 17:30 UTC. Time now 2014-Dec-22 07:05 UTC.
Position N 29°55' W 089°57'.

Length 18 m; draft 3 m.

Type: Tug. MMSI: 367474690.

Date/timePositionNaut miles runAvg speedWind from/ knotsBaromVisibWave heightAir tempDewpointWater temp
2014-Dec-21 17:30N 29°55' W 089°57'5 5.6
2014-Dec-21 16:33N 29°56' W 090°04'0 0.3
2014-Dec-21 15:33N 29°56' W 090°03'0 0.3
2014-Dec-21 14:33N 29°56' W 090°04'0 0.0
2014-Dec-21 13:33N 29°56' W 090°04'0 0.0
2014-Dec-21 12:31N 29°56' W 090°04'0 0.0
2014-Dec-21 11:31N 29°56' W 090°04'0 0.0
2014-Dec-21 10:30N 29°56' W 090°04'0 0.0
2014-Dec-21 09:30N 29°56' W 090°04'  
2014-Dec-18 08:11N 29°34' W 090°23'25 1.9
2014-Dec-17 19:22N 29°54' W 090°05'1 1.6
2014-Dec-17 18:33N 29°55' W 090°05'3 3.2
2014-Dec-17 17:33N 29°57' W 090°03'5 4.3
2014-Dec-17 16:31N 29°56' W 089°58'5 4.6
2014-Dec-17 15:32N 29°56' W 090°03'2 1.7
2014-Dec-17 14:28N 29°55' W 090°05'1 1.6
2014-Dec-17 13:33N 29°56' W 090°04'0 0.2
2014-Dec-17 12:28N 29°55' W 090°04'0 0.0
2014-Dec-17 11:30N 29°55' W 090°04'6 0.2
2014-Dec-16 04:23N 29°56' W 090°10'4 4.0
2014-Dec-16 03:31N 29°55' W 090°07'8 0.1
2014-Dec-14 00:32N 29°55' W 089°58'5 3.4
2014-Dec-13 23:07N 29°55' W 090°04'0 0.0
2014-Dec-13 22:25N 29°55' W 090°04'0 0.0
2014-Dec-13 21:24N 29°55' W 090°04'1 1.1
2014-Dec-13 20:21N 29°55' W 090°05'0 0.0
2014-Dec-13 19:31N 29°55' W 090°05'2 2.4
2014-Dec-13 18:32N 29°57' W 090°04'3 2.9
2014-Dec-13 17:25N 29°56' W 090°00'1 0.8
2014-Dec-13 15:31N 29°57' W 090°01'2 2.1
2014-Dec-13 14:33N 29°57' W 090°04'0 0.0
2014-Dec-13 13:32N 29°57' W 090°04'1 1.3
2014-Dec-13 12:33N 29°55' W 090°04'0 0.5
2014-Dec-13 11:31N 29°56' W 090°03'1 0.5
2014-Dec-13 10:33N 29°55' W 090°04'  
Track history (hours):
 
Tides and Currents Weather Stations Pressure Air Temp Water Temp Dewpoint Dewpoint Depression Visibility Wind Speed Wind Dir Waves Ship Positions

Jennifer

Owner: John W. Stone Oil Distributor, L.L.C., Gretna, LA. More information available from US FCC via Universal Licensing System and Coast Guard Vessel Documentation Center.

Last reported at 2014-Dec-21 17:30 UTC. Time now 2014-Dec-22 07:05 UTC.
Position N 29°55' W 089°57'.

Length 18 m; draft 3 m.

Type: Tug. MMSI: 367474690.

Date/timePositionNaut miles runAvg speedWind from/ knotsBaromVisibWave heightAir tempDewpointWater temp
2014-Dec-21 17:30N 29°55' W 089°57'5 5.6
2014-Dec-21 16:33N 29°56' W 090°04'0 0.3
2014-Dec-21 15:33N 29°56' W 090°03'0 0.3
2014-Dec-21 14:33N 29°56' W 090°04'0 0.0
2014-Dec-21 13:33N 29°56' W 090°04'0 0.0
2014-Dec-21 12:31N 29°56' W 090°04'0 0.0
2014-Dec-21 11:31N 29°56' W 090°04'0 0.0
2014-Dec-21 10:30N 29°56' W 090°04'0 0.0
2014-Dec-21 09:30N 29°56' W 090°04'  
2014-Dec-18 08:11N 29°34' W 090°23'25 1.9
2014-Dec-17 19:22N 29°54' W 090°05'1 1.6
2014-Dec-17 18:33N 29°55' W 090°05'3 3.2
2014-Dec-17 17:33N 29°57' W 090°03'5 4.3
2014-Dec-17 16:31N 29°56' W 089°58'5 4.6
2014-Dec-17 15:32N 29°56' W 090°03'2 1.7
2014-Dec-17 14:28N 29°55' W 090°05'1 1.6
2014-Dec-17 13:33N 29°56' W 090°04'0 0.2
2014-Dec-17 12:28N 29°55' W 090°04'0 0.0
2014-Dec-17 11:30N 29°55' W 090°04'6 0.2
2014-Dec-16 04:23N 29°56' W 090°10'4 4.0
2014-Dec-16 03:31N 29°55' W 090°07'8 0.1
2014-Dec-14 00:32N 29°55' W 089°58'5 3.4
2014-Dec-13 23:07N 29°55' W 090°04'0 0.0
2014-Dec-13 22:25N 29°55' W 090°04'0 0.0
2014-Dec-13 21:24N 29°55' W 090°04'1 1.1
2014-Dec-13 20:21N 29°55' W 090°05'0 0.0
2014-Dec-13 19:31N 29°55' W 090°05'2 2.4
2014-Dec-13 18:32N 29°57' W 090°04'3 2.9
2014-Dec-13 17:25N 29°56' W 090°00'1 0.8
2014-Dec-13 15:31N 29°57' W 090°01'2 2.1
2014-Dec-13 14:33N 29°57' W 090°04'0 0.0
2014-Dec-13 13:32N 29°57' W 090°04'1 1.3
2014-Dec-13 12:33N 29°55' W 090°04'0 0.5
2014-Dec-13 11:31N 29°56' W 090°03'1 0.5
2014-Dec-13 10:33N 29°55' W 090°04'  

Dump ship's entire track history